Time;durP1;ratioP1;P1;durP2;ratioP2;P2;SDS_P1;SDS_P2;PMS_P1;PMS_P2;Temp;Humidity;BMP_temperature;BMP_pressure;BME280_temperature;BME280_humidity;BME280_pressure;Samples;Min_cycle;Max_cycle;Signal;HPM_P1;HPM_P2
2023/06/19 00:00:18;;;;;;;;;;;;;;;;;;6314518;22;19915;-96
2023/06/19 00:02:44;;;;;;;;;;;;;;;;;;6313667;22;19929;-96
2023/06/19 00:05:10;;;;;;;;;;;;;;;;;;6340804;22;19914;-94
2023/06/19 00:07:36;;;;;;;;;;;;;;;;;;6338127;22;20240;-94
2023/06/19 00:10:02;;;;;;;;;;;;;;;;;;6312235;22;19915;-95
2023/06/19 00:12:28;;;;;;;;;;;;;;;;;;6341266;22;20247;-96
2023/06/19 00:14:54;;;;;;;;;;;;;;;;;;6315403;22;19931;-95
2023/06/19 00:17:20;;;;;;;;;;;;;;;;;;6347711;22;19922;-94
2023/06/19 00:19:48;;;;;;;;;;;;;;;;;;6352538;22;19915;-92
2023/06/19 00:22:14;;;;;;;;;;;;;;;;;;6346085;22;19923;-95
2023/06/19 00:24:40;;;;;;;;;;;;;;;;;;6312737;22;20355;-93
2023/06/19 00:27:06;;;;;;;;;;;;;;;;;;6338361;22;19914;-94
2023/06/19 00:29:32;;;;;;;;;;;;;;;;;;6312936;22;19946;-95
2023/06/19 00:31:58;;;;;;;;;;;;;;;;;;6338300;22;19937;-94
2023/06/19 00:34:24;;;;;;;;;;;;;;;;;;6312820;22;19968;-95
2023/06/19 00:36:50;;;;;;;;;;;;;;;;;;6338507;22;20315;-95
2023/06/19 00:39:16;;;;;;;;;;;;;;;;;;6338683;22;20320;-94
2023/06/19 00:41:42;;;;;;;;;;;;;;;;;;6312521;22;19998;-94
2023/06/19 00:44:08;;;;;;;;;;;;;;;;;;6312195;22;19949;-93
2023/06/19 00:46:34;;;;;;;;;;;;;;;;;;6315477;22;19915;-96
2023/06/19 00:49:02;;;;;;;;;;;;;;;;;;6341896;22;20745;-91
2023/06/19 00:51:28;;;;;;;;;;;;;;;;;;6317947;22;19915;-93
2023/06/19 00:53:54;;;;;;;;;;;;;;;;;;6341491;22;19939;-95
2023/06/19 00:56:20;;;;;;;;;;;;;;;;;;6315695;22;19922;-94
2023/06/19 00:58:47;;;;;;;;;;;;;;;;;;6321552;22;19926;-95
2023/06/19 01:01:18;;;;;;;;;;;;;;;;;;6355865;22;19919;-94
2023/06/19 01:03:44;;;;;;;;;;;;;;;;;;6355252;22;19963;-94
2023/06/19 01:06:14;;;;;;;;;;;;;;;;;;6325639;22;19938;-95
2023/06/19 01:08:40;;;;;;;;;;;;;;;;;;6348844;22;19954;-92
2023/06/19 01:11:06;;;;;;;;;;;;;;;;;;6324458;22;20315;-96
2023/06/19 01:13:32;;;;;;;;;;;;;;;;;;6323929;22;19919;-94
2023/06/19 01:15:58;;;;;;;;;;;;;;;;;;6352154;22;19915;-95
2023/06/19 01:18:25;;;;;;;;;;;;;;;;;;6348253;22;20343;-96
2023/06/19 01:20:51;;;;;;;;;;;;;;;;;;6314310;22;19919;-95
2023/06/19 01:23:17;;;;;;;;;;;;;;;;;;6314143;22;19921;-94
2023/06/19 01:25:43;;;;;;;;;;;;;;;;;;6314146;22;20197;-94
2023/06/19 01:28:09;;;;;;;;;;;;;;;;;;6339897;22;19990;-94
2023/06/19 01:30:35;;;;;;;;;;;;;;;;;;6313656;22;19921;-94
2023/06/19 01:33:01;;;;;;;;;;;;;;;;;;6313775;22;20324;-93
2023/06/19 01:35:27;;;;;;;;;;;;;;;;;;6313345;22;19919;-94
2023/06/19 01:37:53;;;;;;;;;;;;;;;;;;6313244;22;19953;-94
2023/06/19 01:40:22;;;;;;;;;;;;;;;;;;6313096;22;19926;-94
2023/06/19 01:42:48;;;;;;;;;;;;;;;;;;6313248;22;19915;-94
2023/06/19 01:45:14;;;;;;;;;;;;;;;;;;6313363;22;20047;-95
2023/06/19 01:47:40;;;;;;;;;;;;;;;;;;6339205;22;19929;-96
2023/06/19 01:50:06;;;;;;;;;;;;;;;;;;6313456;22;19914;-94
2023/06/19 01:52:32;;;;;;;;;;;;;;;;;;6339100;22;19915;-94
2023/06/19 01:54:58;;;;;;;;;;;;;;;;;;6338953;22;19914;-93
2023/06/19 01:57:24;;;;;;;;;;;;;;;;;;6338890;22;19928;-93
2023/06/19 01:59:50;;;;;;;;;;;;;;;;;;6313217;22;19967;-93
2023/06/19 02:02:16;;;;;;;;;;;;;;;;;;6312901;22;19964;-92
2023/06/19 02:04:42;;;;;;;;;;;;;;;;;;6339242;22;19914;-93
2023/06/19 02:07:08;;;;;;;;;;;;;;;;;;6312728;22;19914;-93
2023/06/19 02:09:34;;;;;;;;;;;;;;;;;;6313580;22;19918;-94
2023/06/19 02:12:00;;;;;;;;;;;;;;;;;;6312447;22;20332;-93
2023/06/19 02:14:25;;;;;;;;;;;;;;;;;;6338828;22;20212;-94
2023/06/19 02:16:51;;;;;;;;;;;;;;;;;;6338952;22;19973;-93
2023/06/19 02:19:17;;;;;;;;;;;;;;;;;;6312299;22;20325;-93
2023/06/19 02:21:43;;;;;;;;;;;;;;;;;;6312932;22;19918;-94
2023/06/19 02:24:09;;;;;;;;;;;;;;;;;;6312798;22;20008;-95
2023/06/19 02:26:35;;;;;;;;;;;;;;;;;;6313459;22;19914;-93
2023/06/19 02:29:04;;;;;;;;;;;;;;;;;;6338512;22;20224;-91
2023/06/19 02:31:31;;;;;;;;;;;;;;;;;;6338781;22;19921;-95
2023/06/19 02:33:59;;;;;;;;;;;;;;;;;;6319194;22;19983;-92
2023/06/19 02:36:35;;;;;;;;;;;;;;;;;;;;;
2023/06/19 03:03:47;;;;;;;;;;;;;;;;;;6319923;22;19919;-96
2023/06/19 03:06:17;;;;;;;;;;;;;;;;;;6266286;22;19989;-90
2023/06/19 03:11:32;;;;;;;;;;;;;;;;;;6145841;23;19908;-94
2023/06/19 05:04:46;;;;;;;;;;;;;;;;;;;;;
2023/06/19 05:39:18;;;;;;;;;;;;;;;;;;6305840;22;20283;-90
2023/06/19 05:41:47;;;;;;;;;;;;;;;;;;6266801;22;19965;-94
2023/06/19 05:44:16;;;;;;;;;;;;;;;;;;6283378;22;19919;-94
2023/06/19 05:46:42;;;;;;;;;;;;;;;;;;6261515;22;19922;-94
2023/06/19 05:49:09;;;;;;;;;;;;;;;;;;6283883;22;19915;-92
2023/06/19 05:51:34;;;;;;;;;;;;;;;;;;6301661;22;19953;-93
2023/06/19 05:54:28;;;;;;;;;;;;;;;;;;;;;
2023/06/19 05:56:58;;;;;;;;;;;;;;;;;;6323691;22;19915;-96
2023/06/19 05:59:32;;;;;;;;;;;;;;;;;;6268544;22;20022;-95
2023/06/19 06:05:03;;;;;;;;;;;;;;;;;;6310532;22;20021;-90
2023/06/19 06:07:30;;;;;;;;;;;;;;;;;;6281866;22;19915;-92
2023/06/19 06:09:56;;;;;;;;;;;;;;;;;;6280624;22;19915;-92
2023/06/19 06:12:22;;;;;;;;;;;;;;;;;;6255068;22;20231;-92
2023/06/19 06:14:47;;;;;;;;;;;;;;;;;;6280880;22;20379;-90
2023/06/19 06:17:13;;;;;;;;;;;;;;;;;;6308026;22;19957;-92
2023/06/19 06:19:39;;;;;;;;;;;;;;;;;;6280434;22;19957;-91
2023/06/19 06:22:05;;;;;;;;;;;;;;;;;;6280884;22;20290;-94
2023/06/19 06:24:31;;;;;;;;;;;;;;;;;;6280145;22;19914;-90
2023/06/19 06:26:58;;;;;;;;;;;;;;;;;;6280115;22;20051;-89
2023/06/19 06:29:24;;;;;;;;;;;;;;;;;;6254781;22;19919;-89
2023/06/19 06:31:53;;;;;;;;;;;;;;;;;;6254454;22;20317;-89
2023/06/19 06:34:19;;;;;;;;;;;;;;;;;;6280425;22;19915;-91
2023/06/19 06:36:45;;;;;;;;;;;;;;;;;;6308098;22;20006;-90
2023/06/19 06:39:11;;;;;;;;;;;;;;;;;;6307245;22;20234;-90
2023/06/19 06:41:38;;;;;;;;;;;;;;;;;;6254262;22;19922;-89
2023/06/19 06:44:04;;;;;;;;;;;;;;;;;;6279810;22;19993;-90
2023/06/19 06:46:30;;;;;;;;;;;;;;;;;;6279924;22;19953;-89
2023/06/19 06:48:56;;;;;;;;;;;;;;;;;;6255207;22;19953;-93
2023/06/19 06:51:25;;;;;;;;;;;;;;;;;;6308395;22;20317;-95
2023/06/19 06:53:51;;;;;;;;;;;;;;;;;;6255434;22;19921;-96
2023/06/19 06:56:17;;;;;;;;;;;;;;;;;;6255642;22;19937;-96
2023/06/19 06:58:46;;;;;;;;;;;;;;;;;;6255368;22;19922;-94
2023/06/19 07:01:11;;;;;;;;;;;;;;;;;;6281341;22;19919;-96
2023/06/19 07:03:40;;;;;;;;;;;;;;;;;;6259085;22;19986;-96
2023/06/19 07:06:08;;;;;;;;;;;;;;;;;;6285940;22;19933;-96
2023/06/19 07:08:34;;;;;;;;;;;;;;;;;;6258504;22;19919;-96
2023/06/19 07:11:00;;;;;;;;;;;;;;;;;;6283837;22;19968;-96
2023/06/19 07:13:26;;;;;;;;;;;;;;;;;;6283923;22;19914;-96
2023/06/19 07:15:52;;;;;;;;;;;;;;;;;;6283271;22;19915;-92
2023/06/19 07:18:18;;;;;;;;;;;;;;;;;;6256043;22;19915;-96
2023/06/19 07:20:44;;;;;;;;;;;;;;;;;;6256940;22;19929;-96
2023/06/19 07:23:10;;;;;;;;;;;;;;;;;;6282044;22;19915;-96
2023/06/19 07:25:36;;;;;;;;;;;;;;;;;;6257223;22;19953;-96
2023/06/19 07:28:04;;;;;;;;;;;;;;;;;;6258045;22;19980;-95
2023/06/19 07:30:32;;;;;;;;;;;;;;;;;;6260937;22;20348;-93
2023/06/19 07:33:01;;;;;;;;;;;;;;;;;;6295748;22;19945;-96
2023/06/19 07:35:30;;;;;;;;;;;;;;;;;;6260394;22;19937;-96
2023/06/19 07:37:56;;;;;;;;;;;;;;;;;;6282646;22;19922;-90
2023/06/19 07:40:22;;;;;;;;;;;;;;;;;;6307161;22;19923;-90
2023/06/19 07:42:48;;;;;;;;;;;;;;;;;;6306825;22;19919;-92
2023/06/19 07:45:14;;;;;;;;;;;;;;;;;;6279640;22;19925;-92
2023/06/19 07:47:40;;;;;;;;;;;;;;;;;;6279240;22;19989;-90
2023/06/19 07:50:05;;;;;;;;;;;;;;;;;;6279066;22;19934;-91
2023/06/19 07:52:31;;;;;;;;;;;;;;;;;;6279183;22;19914;-90
2023/06/19 07:54:57;;;;;;;;;;;;;;;;;;6279067;22;20184;-91
2023/06/19 07:57:23;;;;;;;;;;;;;;;;;;6279132;22;19946;-91
2023/06/19 07:59:49;;;;;;;;;;;;;;;;;;6253582;22;20240;-91
2023/06/19 08:02:15;;;;;;;;;;;;;;;;;;6279112;22;19914;-92
2023/06/19 08:04:41;;;;;;;;;;;;;;;;;;6279002;22;20193;-88
2023/06/19 08:07:07;;;;;;;;;;;;;;;;;;6278804;22;19915;-89
2023/06/19 08:09:34;;;;;;;;;;;;;;;;;;6278277;22;19982;-90
2023/06/19 08:12:00;;;;;;;;;;;;;;;;;;6277456;22;20213;-92
2023/06/19 08:14:26;;;;;;;;;;;;;;;;;;6280016;22;19994;-92
2023/06/19 08:16:52;;;;;;;;;;;;;;;;;;6253008;22;19915;-91
2023/06/19 08:19:17;;;;;;;;;;;;;;;;;;6278680;22;19922;-91
2023/06/19 08:21:43;;;;;;;;;;;;;;;;;;6254644;22;19925;-95
2023/06/19 08:24:09;;;;;;;;;;;;;;;;;;6256887;22;19914;-96
2023/06/19 08:26:35;;;;;;;;;;;;;;;;;;6257945;22;19945;-96
2023/06/19 08:29:01;;;;;;;;;;;;;;;;;;6255005;22;19915;-93
2023/06/19 08:31:28;;;;;;;;;;;;;;;;;;6279561;22;19919;-94
2023/06/19 08:33:54;;;;;;;;;;;;;;;;;;6254469;22;19968;-94
2023/06/19 08:36:22;;;;;;;;;;;;;;;;;;6254249;22;19966;-96
2023/06/19 08:38:49;;;;;;;;;;;;;;;;;;6279702;22;20218;-94
2023/06/19 08:41:15;;;;;;;;;;;;;;;;;;6254611;22;19954;-95
2023/06/19 08:43:42;;;;;;;;;;;;;;;;;;6254736;22;19914;-93
2023/06/19 08:46:08;;;;;;;;;;;;;;;;;;6279946;22;20213;-93
2023/06/19 08:48:34;;;;;;;;;;;;;;;;;;6280044;22;19926;-96
2023/06/19 08:51:21;;;;;;;;;;;;;;;;;;6254341;22;19915;-95
2023/06/19 08:53:46;;;;;;;;;;;;;;;;;;6281116;22;19915;-91
2023/06/19 08:56:12;;;;;;;;;;;;;;;;;;6279696;22;19994;-92
2023/06/19 08:58:38;;;;;;;;;;;;;;;;;;6279412;22;19915;-92
2023/06/19 09:01:04;;;;;;;;;;;;;;;;;;6254052;22;19922;-93
2023/06/19 09:03:30;;;;;;;;;;;;;;;;;;6279667;22;19915;-90
2023/06/19 09:05:56;;;;;;;;;;;;;;;;;;6253499;22;19915;-89
2023/06/19 09:08:22;;;;;;;;;;;;;;;;;;6307416;22;19990;-92
2023/06/19 09:10:48;;;;;;;;;;;;;;;;;;6280727;22;19915;-91
2023/06/19 09:13:14;;;;;;;;;;;;;;;;;;6279862;22;19930;-90
2023/06/19 09:15:39;;;;;;;;;;;;;;;;;;6253586;22;20303;-90
2023/06/19 09:18:05;;;;;;;;;;;;;;;;;;6253977;22;19997;-91
2023/06/19 09:23:19;;;;;;;;;;;;;;;;;;6321849;22;20291;-93
2023/06/19 09:25:47;;;;;;;;;;;;;;;;;;6272990;22;19907;-92
2023/06/19 09:28:22;;;;;;;;;;;;;;;;;;6275452;22;19950;-95
2023/06/19 09:33:59;;;;;;;;;;;;;;;;;;6202490;22;19919;-94
2023/06/19 09:36:26;;;;;;;;;;;;;;;;;;6284970;22;19990;-95
2023/06/19 09:38:52;;;;;;;;;;;;;;;;;;6296334;22;19963;-93
2023/06/19 09:41:19;;;;;;;;;;;;;;;;;;6297109;22;19993;-91
2023/06/19 09:43:45;;;;;;;;;;;;;;;;;;6268660;22;19927;-91
2023/06/19 09:46:11;;;;;;;;;;;;;;;;;;6292326;22;19926;-94
2023/06/19 09:48:37;;;;;;;;;;;;;;;;;;6260359;22;20350;-93
2023/06/19 09:51:03;;;;;;;;;;;;;;;;;;6285883;22;19919;-96
2023/06/19 09:53:29;;;;;;;;;;;;;;;;;;6283742;22;20088;-93
2023/06/19 09:55:56;;;;;;;;;;;;;;;;;;6256752;22;20029;-94
2023/06/19 09:58:21;;;;;;;;;;;;;;;;;;6281718;22;19922;-93
2023/06/19 10:00:50;;;;;;;;;;;;;;;;;;6256479;22;19919;-93
2023/06/19 10:03:16;;;;;;;;;;;;;;;;;;6256570;22;19919;-95
2023/06/19 10:05:42;;;;;;;;;;;;;;;;;;6257243;22;19965;-94
2023/06/19 10:08:08;;;;;;;;;;;;;;;;;;6260772;22;19915;-93
2023/06/19 10:10:34;;;;;;;;;;;;;;;;;;6283744;22;19915;-92
2023/06/19 10:13:00;;;;;;;;;;;;;;;;;;6256110;22;19915;-93
2023/06/19 10:15:26;;;;;;;;;;;;;;;;;;6255279;22;19915;-92
2023/06/19 10:17:52;;;;;;;;;;;;;;;;;;6255600;22;19950;-92
2023/06/19 10:20:18;;;;;;;;;;;;;;;;;;6255723;22;19925;-92
2023/06/19 10:22:44;;;;;;;;;;;;;;;;;;6255223;22;19986;-92
2023/06/19 10:25:09;;;;;;;;;;;;;;;;;;6283377;22;19915;-92
2023/06/19 10:27:35;;;;;;;;;;;;;;;;;;6256682;22;19922;-91
2023/06/19 10:30:01;;;;;;;;;;;;;;;;;;6255817;22;19918;-93
2023/06/19 10:32:27;;;;;;;;;;;;;;;;;;6255631;22;19925;-92
2023/06/19 10:34:53;;;;;;;;;;;;;;;;;;6255099;22;19922;-90
2023/06/19 10:37:19;;;;;;;;;;;;;;;;;;6255383;22;20069;-91
2023/06/19 10:39:45;;;;;;;;;;;;;;;;;;6254809;22;20237;-90
2023/06/19 10:42:11;;;;;;;;;;;;;;;;;;6254786;22;20351;-92
2023/06/19 10:44:37;;;;;;;;;;;;;;;;;;6254554;22;19927;-92
2023/06/19 10:47:03;;;;;;;;;;;;;;;;;;6280661;22;19986;-92
2023/06/19 10:49:29;;;;;;;;;;;;;;;;;;6254839;22;19921;-91
2023/06/19 10:51:58;;;;;;;;;;;;;;;;;;6254961;22;19964;-92
2023/06/19 10:54:24;;;;;;;;;;;;;;;;;;6254741;22;20194;-92
2023/06/19 10:56:51;;;;;;;;;;;;;;;;;;6280609;22;19915;-92
2023/06/19 10:59:17;;;;;;;;;;;;;;;;;;6280856;22;19915;-92
2023/06/19 11:01:43;;;;;;;;;;;;;;;;;;6255345;22;19926;-93
2023/06/19 11:04:09;;;;;;;;;;;;;;;;;;6254855;22;19915;-93
2023/06/19 11:06:35;;;;;;;;;;;;;;;;;;6254865;22;19915;-92
2023/06/19 11:09:03;;;;;;;;;;;;;;;;;;6255078;22;20381;-93
2023/06/19 11:11:29;;;;;;;;;;;;;;;;;;6255431;22;19915;-92
2023/06/19 11:13:55;;;;;;;;;;;;;;;;;;6254779;22;19915;-90
2023/06/19 11:16:21;;;;;;;;;;;;;;;;;;6254778;22;19915;-92
2023/06/19 11:18:47;;;;;;;;;;;;;;;;;;6281577;22;19919;-95
2023/06/19 11:21:13;;;;;;;;;;;;;;;;;;6254757;22;19923;-93
2023/06/19 11:23:51;;;;;;;;;;;;;;;;;;6281137;22;19950;-92
2023/06/19 11:26:17;;;;;;;;;;;;;;;;;;6254672;22;19915;-94
2023/06/19 11:28:43;;;;;;;;;;;;;;;;;;6281049;22;19918;-92
2023/06/19 11:31:09;;;;;;;;;;;;;;;;;;6280428;22;20000;-91
2023/06/19 11:33:35;;;;;;;;;;;;;;;;;;6255021;22;19964;-91
2023/06/19 11:36:01;;;;;;;;;;;;;;;;;;6279861;22;19923;-92
2023/06/19 11:38:27;;;;;;;;;;;;;;;;;;6254919;22;19969;-92
2023/06/19 11:40:53;;;;;;;;;;;;;;;;;;6280083;22;20309;-94
2023/06/19 11:43:19;;;;;;;;;;;;;;;;;;6254722;22;19915;-93
2023/06/19 11:45:45;;;;;;;;;;;;;;;;;;6279156;22;19915;-92
2023/06/19 11:48:12;;;;;;;;;;;;;;;;;;6254509;22;19915;-90
2023/06/19 11:50:41;;;;;;;;;;;;;;;;;;6255385;22;20217;-95
2023/06/19 11:53:07;;;;;;;;;;;;;;;;;;6254695;22;19990;-90
2023/06/19 11:55:33;;;;;;;;;;;;;;;;;;6280511;22;19918;-90
2023/06/19 11:57:58;;;;;;;;;;;;;;;;;;6279924;22;19915;-90
2023/06/19 12:00:25;;;;;;;;;;;;;;;;;;6254706;22;19942;-90
2023/06/19 12:02:52;;;;;;;;;;;;;;;;;;6254431;22;19977;-90
2023/06/19 12:05:18;;;;;;;;;;;;;;;;;;6279265;22;20286;-88
2023/06/19 12:07:44;;;;;;;;;;;;;;;;;;6254432;22;19964;-91
2023/06/19 12:10:11;;;;;;;;;;;;;;;;;;6254585;22;19968;-93
2023/06/19 12:12:37;;;;;;;;;;;;;;;;;;6254892;22;20049;-93
2023/06/19 12:15:03;;;;;;;;;;;;;;;;;;6255687;22;19915;-93
2023/06/19 12:17:29;;;;;;;;;;;;;;;;;;6254916;22;20192;-91
2023/06/19 12:19:55;;;;;;;;;;;;;;;;;;6254671;22;19923;-91
2023/06/19 12:22:21;;;;;;;;;;;;;;;;;;6279640;22;20379;-92
2023/06/19 12:24:47;;;;;;;;;;;;;;;;;;6279996;22;20188;-92
2023/06/19 12:27:13;;;;;;;;;;;;;;;;;;6279653;22;19923;-91
2023/06/19 12:29:39;;;;;;;;;;;;;;;;;;6281047;22;20286;-90
2023/06/19 12:32:05;;;;;;;;;;;;;;;;;;6279575;22;20162;-91
2023/06/19 12:40:22;;;;;;;;;;;;;;;;;;6304588;22;19940;-92
2023/06/19 12:48:43;;;;;;;;;;;;;;;;;;6295163;22;19926;-93
2023/06/19 12:51:09;;;;;;;;;;;;;;;;;;6255820;22;19919;-96
2023/06/19 12:53:35;;;;;;;;;;;;;;;;;;6254323;22;19915;-94
2023/06/19 12:56:01;;;;;;;;;;;;;;;;;;6253957;22;19937;-95
2023/06/19 12:58:27;;;;;;;;;;;;;;;;;;6254457;22;20275;-92
2023/06/19 13:00:53;;;;;;;;;;;;;;;;;;6253831;22;19919;-92
2023/06/19 13:03:19;;;;;;;;;;;;;;;;;;6254069;22;20000;-93
2023/06/19 13:05:45;;;;;;;;;;;;;;;;;;6279111;22;20251;-93
2023/06/19 13:08:11;;;;;;;;;;;;;;;;;;6254449;22;19921;-95
2023/06/19 13:10:40;;;;;;;;;;;;;;;;;;6254345;22;19964;-95
2023/06/19 13:13:06;;;;;;;;;;;;;;;;;;6254563;22;19915;-94
2023/06/19 13:15:35;;;;;;;;;;;;;;;;;;6279869;22;19982;-94
2023/06/19 13:18:01;;;;;;;;;;;;;;;;;;6279959;22;19921;-91
2023/06/19 13:20:27;;;;;;;;;;;;;;;;;;6279655;22;20006;-92
2023/06/19 13:22:53;;;;;;;;;;;;;;;;;;6278287;22;20305;-93
2023/06/19 13:25:19;;;;;;;;;;;;;;;;;;6254869;22;19926;-96
2023/06/19 13:27:45;;;;;;;;;;;;;;;;;;6253692;22;19922;-94
2023/06/19 13:30:11;;;;;;;;;;;;;;;;;;6258600;22;19986;-93
2023/06/19 13:32:37;;;;;;;;;;;;;;;;;;6279946;22;20002;-93
2023/06/19 13:35:03;;;;;;;;;;;;;;;;;;6279423;22;19915;-95
2023/06/19 13:37:30;;;;;;;;;;;;;;;;;;6254179;22;19949;-94
2023/06/19 13:39:56;;;;;;;;;;;;;;;;;;6253391;22;19922;-92
2023/06/19 13:42:22;;;;;;;;;;;;;;;;;;6253818;22;19915;-93
2023/06/19 13:44:48;;;;;;;;;;;;;;;;;;6253742;22;19918;-92
2023/06/19 13:47:14;;;;;;;;;;;;;;;;;;6253637;22;19922;-95
2023/06/19 13:49:40;;;;;;;;;;;;;;;;;;6253933;22;19915;-94
2023/06/19 13:52:06;;;;;;;;;;;;;;;;;;6255023;22;19938;-93
2023/06/19 13:54:33;;;;;;;;;;;;;;;;;;6279401;22;19957;-93
2023/06/19 13:56:59;;;;;;;;;;;;;;;;;;6253800;22;20317;-94
2023/06/19 13:59:25;;;;;;;;;;;;;;;;;;6253747;22;19963;-92
2023/06/19 14:01:51;;;;;;;;;;;;;;;;;;6253830;22;20259;-93
2023/06/19 14:04:17;;;;;;;;;;;;;;;;;;6281437;22;19928;-94
2023/06/19 14:06:43;;;;;;;;;;;;;;;;;;6254383;22;19969;-94
2023/06/19 14:09:09;;;;;;;;;;;;;;;;;;6255937;22;19937;-91
2023/06/19 14:11:35;;;;;;;;;;;;;;;;;;6256195;22;20052;-92
2023/06/19 14:14:01;;;;;;;;;;;;;;;;;;6253347;22;20329;-93
2023/06/19 14:16:30;;;;;;;;;;;;;;;;;;6280990;22;19923;-93
2023/06/19 14:18:56;;;;;;;;;;;;;;;;;;6263705;22;20048;-94
2023/06/19 14:21:23;;;;;;;;;;;;;;;;;;6254990;22;19919;-92
2023/06/19 14:23:49;;;;;;;;;;;;;;;;;;6255612;22;19915;-92
2023/06/19 14:26:15;;;;;;;;;;;;;;;;;;6255430;22;19915;-92
2023/06/19 14:28:41;;;;;;;;;;;;;;;;;;6255466;22;19915;-93
2023/06/19 14:31:07;;;;;;;;;;;;;;;;;;6254990;22;19921;-92
2023/06/19 14:33:33;;;;;;;;;;;;;;;;;;6280933;22;19922;-93
2023/06/19 14:35:59;;;;;;;;;;;;;;;;;;6255032;22;20002;-92
2023/06/19 14:38:27;;;;;;;;;;;;;;;;;;6255623;22;19922;-94
2023/06/19 14:40:53;;;;;;;;;;;;;;;;;;6255629;22;20321;-91
2023/06/19 14:43:19;;;;;;;;;;;;;;;;;;6255876;22;19941;-93
2023/06/19 14:45:45;;;;;;;;;;;;;;;;;;6255135;22;19915;-93
2023/06/19 14:48:11;;;;;;;;;;;;;;;;;;6255558;22;19984;-92
2023/06/19 14:50:40;;;;;;;;;;;;;;;;;;6255511;22;20239;-94
2023/06/19 14:53:06;;;;;;;;;;;;;;;;;;6255609;22;19990;-93
2023/06/19 14:55:32;;;;;;;;;;;;;;;;;;6280668;22;19915;-93
2023/06/19 14:57:58;;;;;;;;;;;;;;;;;;6255553;22;19923;-93
2023/06/19 15:00:24;;;;;;;;;;;;;;;;;;6255572;22;19926;-93
2023/06/19 15:02:50;;;;;;;;;;;;;;;;;;6255599;22;19972;-93
2023/06/19 15:05:16;;;;;;;;;;;;;;;;;;6255291;22;20273;-93
2023/06/19 15:07:42;;;;;;;;;;;;;;;;;;6254910;22;19915;-92
2023/06/19 15:10:11;;;;;;;;;;;;;;;;;;6281017;22;19997;-94
2023/06/19 15:12:37;;;;;;;;;;;;;;;;;;6281562;22;19914;-93
2023/06/19 15:15:03;;;;;;;;;;;;;;;;;;6255622;22;19914;-92
2023/06/19 15:17:29;;;;;;;;;;;;;;;;;;6255258;22;19981;-93
2023/06/19 15:19:55;;;;;;;;;;;;;;;;;;6255265;22;19926;-93
2023/06/19 15:22:20;;;;;;;;;;;;;;;;;;6255176;22;19916;-92
2023/06/19 15:24:46;;;;;;;;;;;;;;;;;;6255471;22;20255;-92
2023/06/19 15:27:12;;;;;;;;;;;;;;;;;;6255497;22;20270;-92
2023/06/19 15:29:38;;;;;;;;;;;;;;;;;;6281193;22;20283;-93
2023/06/19 15:32:04;;;;;;;;;;;;;;;;;;6255054;22;20336;-93
2023/06/19 15:34:30;;;;;;;;;;;;;;;;;;6262693;22;19918;-93
2023/06/19 15:36:56;;;;;;;;;;;;;;;;;;6254711;22;19964;-92
2023/06/19 15:39:22;;;;;;;;;;;;;;;;;;6279263;22;20430;-92
2023/06/19 15:41:48;;;;;;;;;;;;;;;;;;6254006;22;19930;-93
2023/06/19 15:44:14;;;;;;;;;;;;;;;;;;6253542;22;19922;-92
2023/06/19 15:46:40;;;;;;;;;;;;;;;;;;6253846;22;19968;-92
2023/06/19 15:49:06;;;;;;;;;;;;;;;;;;6280211;22;19985;-93
2023/06/19 15:51:32;;;;;;;;;;;;;;;;;;6254153;22;19914;-93
2023/06/19 15:53:58;;;;;;;;;;;;;;;;;;6253995;22;19950;-93
2023/06/19 15:56:24;;;;;;;;;;;;;;;;;;6253673;22;20265;-94
2023/06/19 15:58:50;;;;;;;;;;;;;;;;;;6254111;22;20320;-92
2023/06/19 16:01:16;;;;;;;;;;;;;;;;;;6279371;22;19926;-92
2023/06/19 16:03:42;;;;;;;;;;;;;;;;;;6254036;22;20585;-94
2023/06/19 16:06:08;;;;;;;;;;;;;;;;;;6253558;22;20380;-94
2023/06/19 16:08:34;;;;;;;;;;;;;;;;;;6254541;22;19914;-94
2023/06/19 16:11:02;;;;;;;;;;;;;;;;;;6253432;22;19915;-93
2023/06/19 16:13:28;;;;;;;;;;;;;;;;;;6254003;22;19919;-93
2023/06/19 16:15:54;;;;;;;;;;;;;;;;;;6253208;22;20012;-94
2023/06/19 16:18:23;;;;;;;;;;;;;;;;;;6254224;22;19980;-92
2023/06/19 16:20:49;;;;;;;;;;;;;;;;;;6253827;22;20337;-93
2023/06/19 16:23:15;;;;;;;;;;;;;;;;;;6256175;22;19942;-92
2023/06/19 16:25:42;;;;;;;;;;;;;;;;;;6266767;22;19934;-93
2023/06/19 16:28:08;;;;;;;;;;;;;;;;;;6262143;22;19926;-92
2023/06/19 16:30:33;;;;;;;;;;;;;;;;;;6288977;22;19916;-92
2023/06/19 16:32:59;;;;;;;;;;;;;;;;;;6254491;22;19919;-92
2023/06/19 16:35:27;;;;;;;;;;;;;;;;;;6255081;22;19938;-95
2023/06/19 16:37:56;;;;;;;;;;;;;;;;;;6255134;22;19915;-95
2023/06/19 16:40:23;;;;;;;;;;;;;;;;;;6255017;22;19918;-92
2023/06/19 16:42:50;;;;;;;;;;;;;;;;;;6283263;22;19914;-93
2023/06/19 16:45:16;;;;;;;;;;;;;;;;;;6281663;22;19919;-92
2023/06/19 16:47:41;;;;;;;;;;;;;;;;;;6281037;22;19919;-91
2023/06/19 16:50:08;;;;;;;;;;;;;;;;;;6280767;22;20000;-93
2023/06/19 16:52:34;;;;;;;;;;;;;;;;;;6254824;22;19915;-93
2023/06/19 16:55:00;;;;;;;;;;;;;;;;;;6278708;22;19915;-92
2023/06/19 17:00:30;;;;;;;;;;;;;;;;;;6300843;22;19919;-92
2023/06/19 17:02:56;;;;;;;;;;;;;;;;;;6254662;22;19950;-92
2023/06/19 17:05:26;;;;;;;;;;;;;;;;;;6279134;22;19914;-92
2023/06/19 17:07:52;;;;;;;;;;;;;;;;;;6253550;22;19992;-92
2023/06/19 17:10:18;;;;;;;;;;;;;;;;;;6279399;22;19918;-91
2023/06/19 17:12:47;;;;;;;;;;;;;;;;;;6254045;22;20337;-91
2023/06/19 17:15:13;;;;;;;;;;;;;;;;;;6278890;22;19915;-94
2023/06/19 17:17:39;;;;;;;;;;;;;;;;;;6279914;22;19915;-94
2023/06/19 17:20:06;;;;;;;;;;;;;;;;;;6254769;22;19930;-93
2023/06/19 17:22:32;;;;;;;;;;;;;;;;;;6253682;22;19915;-94
2023/06/19 17:24:58;;;;;;;;;;;;;;;;;;6254509;22;19926;-92
2023/06/19 17:27:24;;;;;;;;;;;;;;;;;;6253881;22;19922;-93
2023/06/19 17:29:50;;;;;;;;;;;;;;;;;;6280194;22;20244;-93
2023/06/19 17:32:16;;;;;;;;;;;;;;;;;;6253860;22;19919;-92
2023/06/19 17:34:42;;;;;;;;;;;;;;;;;;6253768;22;19937;-93
2023/06/19 17:37:08;;;;;;;;;;;;;;;;;;6253614;22;19915;-91
2023/06/19 17:39:34;;;;;;;;;;;;;;;;;;6253729;22;19915;-92
2023/06/19 17:42:00;;;;;;;;;;;;;;;;;;6280549;22;20006;-92
2023/06/19 17:44:27;;;;;;;;;;;;;;;;;;6255476;22;19986;-93
2023/06/19 17:46:53;;;;;;;;;;;;;;;;;;6281535;22;19922;-93
2023/06/19 17:49:22;;;;;;;;;;;;;;;;;;6256195;22;19915;-91
2023/06/19 17:51:48;;;;;;;;;;;;;;;;;;6255826;22;19952;-92
2023/06/19 17:54:14;;;;;;;;;;;;;;;;;;6255205;22;19972;-90
2023/06/19 17:56:39;;;;;;;;;;;;;;;;;;6281292;22;19919;-91
2023/06/19 17:59:05;;;;;;;;;;;;;;;;;;6255551;22;19989;-90
2023/06/19 18:01:31;;;;;;;;;;;;;;;;;;6280500;22;20014;-92
2023/06/19 18:03:57;;;;;;;;;;;;;;;;;;6281367;22;19957;-92
2023/06/19 18:06:23;;;;;;;;;;;;;;;;;;6255513;22;19922;-90
2023/06/19 18:08:49;;;;;;;;;;;;;;;;;;6280572;22;19922;-90
2023/06/19 18:11:15;;;;;;;;;;;;;;;;;;6280311;22;19919;-90
2023/06/19 18:13:41;;;;;;;;;;;;;;;;;;6280493;22;19919;-92
2023/06/19 18:16:07;;;;;;;;;;;;;;;;;;6281171;22;19923;-91
2023/06/19 18:18:33;;;;;;;;;;;;;;;;;;6280983;22;19915;-90
2023/06/19 18:20:59;;;;;;;;;;;;;;;;;;6280560;22;19925;-90
2023/06/19 18:23:25;;;;;;;;;;;;;;;;;;6282463;22;20287;-89
2023/06/19 18:25:51;;;;;;;;;;;;;;;;;;6255440;22;19915;-91
2023/06/19 18:28:17;;;;;;;;;;;;;;;;;;6280248;22;19927;-91
2023/06/19 18:30:43;;;;;;;;;;;;;;;;;;6255609;22;19919;-92
2023/06/19 18:33:10;;;;;;;;;;;;;;;;;;6281667;22;20313;-91
2023/06/19 18:35:36;;;;;;;;;;;;;;;;;;6254843;22;19922;-93
2023/06/19 18:38:01;;;;;;;;;;;;;;;;;;6255196;22;19915;-96
2023/06/19 18:40:27;;;;;;;;;;;;;;;;;;6255733;22;19923;-93
2023/06/19 18:42:53;;;;;;;;;;;;;;;;;;6255297;22;19915;-95
2023/06/19 18:45:19;;;;;;;;;;;;;;;;;;6259180;22;20359;-96
2023/06/19 18:47:48;;;;;;;;;;;;;;;;;;6255965;22;19915;-95
2023/06/19 18:50:17;;;;;;;;;;;;;;;;;;6256367;22;19923;-96
2023/06/19 18:53:02;;;;;;;;;;;;;;;;;;;;;
2023/06/19 19:03:52;;;;;;;;;;;;;;;;;;6164469;23;19916;-94
2023/06/19 19:09:26;;;;;;;;;;;;;;;;;;6266257;22;20037;-95
2023/06/19 19:11:53;;;;;;;;;;;;;;;;;;6257909;22;19961;-96
2023/06/19 19:14:21;;;;;;;;;;;;;;;;;;6257692;22;19915;-96
2023/06/19 19:32:22;;;;;;;;;;;;;;;;;;6307195;22;19942;-94
2023/06/19 19:37:37;;;;;;;;;;;;;;;;;;6168224;23;19924;-96
2023/06/19 19:40:05;;;;;;;;;;;;;;;;;;6162571;23;20002;-94
2023/06/19 19:42:31;;;;;;;;;;;;;;;;;;6207288;22;19926;-95
2023/06/19 19:45:00;;;;;;;;;;;;;;;;;;6230908;22;19939;-96
2023/06/19 19:56:14;;;;;;;;;;;;;;;;;;6252931;22;19950;-96
2023/06/19 19:58:55;;;;;;;;;;;;;;;;;;6259638;22;19919;-96
2023/06/19 20:01:21;;;;;;;;;;;;;;;;;;6255820;22;20278;-96
2023/06/19 20:03:54;;;;;;;;;;;;;;;;;;6282196;22;19922;-96
2023/06/19 20:06:25;;;;;;;;;;;;;;;;;;6257339;22;19926;-96
2023/06/19 20:09:01;;;;;;;;;;;;;;;;;;6308436;22;19914;-94
2023/06/19 20:11:27;;;;;;;;;;;;;;;;;;6254847;22;19946;-93
2023/06/19 20:13:53;;;;;;;;;;;;;;;;;;6253737;22;19922;-88
2023/06/19 20:16:19;;;;;;;;;;;;;;;;;;6278548;22;19926;-88
2023/06/19 20:18:45;;;;;;;;;;;;;;;;;;6253184;22;20163;-88
2023/06/19 20:21:12;;;;;;;;;;;;;;;;;;6278526;22;19948;-88
2023/06/19 20:23:38;;;;;;;;;;;;;;;;;;6279024;22;19915;-88
2023/06/19 20:26:04;;;;;;;;;;;;;;;;;;6279165;22;20241;-91
2023/06/19 20:28:30;;;;;;;;;;;;;;;;;;6279298;22;19925;-90
2023/06/19 20:30:56;;;;;;;;;;;;;;;;;;6278711;22;20018;-88
2023/06/19 20:33:22;;;;;;;;;;;;;;;;;;6278420;22;19915;-88
2023/06/19 20:35:48;;;;;;;;;;;;;;;;;;6253171;22;20325;-89